Time;durP1;ratioP1;P1;durP2;ratioP2;P2;SDS_P1;SDS_P2;PMS_P1;PMS_P2;Temp;Humidity;BMP_temperature;BMP_pressure;BME280_temperature;BME280_humidity;BME280_pressure;Samples;Min_cycle;Max_cycle;Signal;HPM_P1;HPM_P2
2022/11/29 00:08:03;;;;;;;6.70;2.15;;;8.80;93.60;;;;;;4695601;30;20061;-81
2022/11/29 00:11:04;;;;;;;4.30;1.80;;;8.80;93.60;;;;;;4648123;30;20047;-78
2022/11/29 00:42:26;;;;;;;6.55;2.30;;;8.80;93.50;;;;;;4709900;30;20052;-81
2022/11/29 00:44:51;;;;;;;4.97;1.90;;;8.80;93.50;;;;;;4682287;30;20490;-82
2022/11/29 00:47:17;;;;;;;5.30;1.95;;;8.70;93.50;;;;;;4711471;30;20057;-81
2022/11/29 00:49:42;;;;;;;7.32;2.15;;;8.90;93.60;;;;;;4711767;30;20056;-81
2022/11/29 00:52:08;;;;;;;5.20;2.17;;;8.80;93.60;;;;;;4711927;30;20048;-82
2022/11/29 00:54:34;;;;;;;8.32;2.70;;;8.80;93.60;;;;;;4713818;30;20041;-82
2022/11/29 00:57:00;;;;;;;5.70;2.33;;;8.80;93.60;;;;;;4736517;30;20060;-81
2022/11/29 00:59:26;;;;;;;6.93;2.55;;;8.80;93.60;;;;;;4781329;30;20143;-81
2022/11/29 01:01:51;;;;;;;6.43;2.38;;;8.80;93.60;;;;;;4781444;30;20079;-77
2022/11/29 01:04:17;;;;;;;5.45;2.05;;;8.80;93.60;;;;;;4782013;30;20057;-75
2022/11/29 01:06:43;;;;;;;6.57;2.38;;;8.90;93.60;;;;;;4822059;29;20390;-75
2022/11/29 01:09:09;;;;;;;4.90;1.80;;;8.90;93.60;;;;;;4913256;29;20040;-77
2022/11/29 01:11:34;;;;;;;6.40;2.15;;;8.80;93.60;;;;;;4941121;28;20063;-78
2022/11/29 01:14:01;;;;;;;5.25;2.25;;;8.90;93.70;;;;;;4948234;28;20099;-77
2022/11/29 01:16:29;;;;;;;6.05;2.10;;;8.90;93.70;;;;;;4982512;28;20402;-77
2022/11/29 01:18:55;;;;;;;6.68;2.15;;;8.80;93.60;;;;;;5015507;28;20047;-77
2022/11/29 01:21:22;;;;;;;7.68;2.50;;;8.90;93.70;;;;;;5093439;28;20088;-77
2022/11/29 01:23:50;;;;;;;5.80;2.20;;;8.80;93.70;;;;;;5111156;28;20103;-77
2022/11/29 01:26:19;;;;;;;6.22;2.25;;;8.80;93.70;;;;;;5129395;28;20354;-77
2022/11/29 01:28:47;;;;;;;7.28;2.20;;;8.80;93.70;;;;;;5128918;28;20085;-77
2022/11/29 01:31:16;;;;;;;6.28;2.15;;;8.80;93.70;;;;;;5129034;28;20039;-77
2022/11/29 01:33:42;;;;;;;7.03;2.35;;;9.00;93.70;;;;;;5105083;28;20417;-77
2022/11/29 01:36:08;;;;;;;6.20;2.30;;;8.90;94.00;;;;;;5114997;28;20036;-77
2022/11/29 01:38:35;;;;;;;5.97;2.22;;;8.80;93.70;;;;;;5079862;28;20032;-77
2022/11/29 01:41:05;;;;;;;5.13;1.70;;;8.90;93.70;;;;;;5114897;28;20157;-77
2022/11/29 01:43:31;;;;;;;4.65;1.77;;;8.90;93.70;;;;;;5080288;28;20035;-77
2022/11/29 01:45:57;;;;;;;4.25;1.70;;;8.90;93.70;;;;;;5114850;28;20126;-77
2022/11/29 01:48:27;;;;;;;4.50;1.77;;;8.90;93.70;;;;;;5097343;28;20122;-77
2022/11/29 01:50:56;;;;;;;5.63;2.30;;;8.90;93.70;;;;;;5114826;28;20031;-77
2022/11/29 01:53:22;;;;;;;5.18;1.75;;;8.90;93.70;;;;;;5115340;28;20066;-77
2022/11/29 01:55:52;;;;;;;6.75;2.50;;;8.90;93.70;;;;;;5080435;28;20035;-77
2022/11/29 01:58:19;;;;;;;4.53;1.58;;;8.90;93.70;;;;;;5096828;28;20054;-77
2022/11/29 02:00:45;;;;;;;4.65;2.00;;;8.90;93.70;;;;;;5115388;28;20072;-77
2022/11/29 02:03:13;;;;;;;4.82;1.70;;;8.90;93.70;;;;;;5114639;28;20074;-77
2022/11/29 02:05:43;;;;;;;4.90;1.98;;;8.90;93.70;;;;;;5096421;28;20131;-77
2022/11/29 02:08:12;;;;;;;4.43;1.65;;;8.90;93.70;;;;;;5115108;28;20057;-77
2022/11/29 02:11:04;;;;;;;4.85;1.67;;;8.90;93.70;;;;;;5115077;28;20423;-77
2022/11/29 02:14:04;;;;;;;4.82;1.80;;;8.90;93.70;;;;;;5114890;28;20102;-77
2022/11/29 02:16:41;;;;;;;4.40;1.70;;;9.00;93.70;;;;;;5114405;28;20509;-77
2022/11/29 02:19:44;;;;;;;6.10;2.03;;;8.90;93.60;;;;;;5096160;28;20047;-77
2022/11/29 02:22:29;;;;;;;6.00;2.30;;;9.10;93.70;;;;;;5095864;28;20046;-77
2022/11/29 02:25:19;;;;;;;5.15;1.83;;;8.90;93.60;;;;;;5114126;28;20070;-77
2022/11/29 02:28:17;;;;;;;5.45;2.00;;;8.90;93.60;;;;;;5095809;28;20474;-77
2022/11/29 02:31:05;;;;;;;6.85;2.25;;;9.10;93.70;;;;;;5114153;28;20122;-77
2022/11/29 02:34:03;;;;;;;7.75;2.47;;;8.90;93.60;;;;;;5114101;28;20095;-77
2022/11/29 02:37:00;;;;;;;7.18;2.22;;;9.00;93.70;;;;;;5114435;28;20067;-77
2022/11/29 02:39:44;;;;;;;5.05;1.92;;;8.90;93.60;;;;;;5097754;28;20074;-77
2022/11/29 02:42:50;;;;;;;8.57;2.63;;;8.90;93.60;;;;;;5095387;28;20122;-77
2022/11/29 02:45:45;;;;;;;6.03;2.10;;;8.90;93.70;;;;;;5112326;28;20553;-77
2022/11/29 02:48:39;;;;;;;5.53;2.10;;;8.90;93.60;;;;;;5100106;28;20040;-77
2022/11/29 02:51:29;;;;;;;6.47;2.13;;;8.90;93.60;;;;;;5113704;28;20058;-77
2022/11/29 02:54:08;;;;;;;8.60;2.60;;;8.90;93.70;;;;;;5114093;28;20040;-77
2022/11/29 02:56:47;;;;;;;6.18;2.10;;;8.90;93.70;;;;;;5113696;28;20050;-77
2022/11/29 02:59:42;;;;;;;3.90;1.73;;;9.00;93.70;;;;;;5113898;28;20134;-77
2022/11/29 03:02:29;;;;;;;8.30;2.38;;;8.80;93.60;;;;;;5098376;28;20043;-77
2022/11/29 03:05:11;;;;;;;9.82;3.10;;;8.90;93.70;;;;;;5114178;28;20027;-77
2022/11/29 03:07:50;;;;;;;6.07;2.28;;;8.90;93.70;;;;;;5095797;28;20040;-77
2022/11/29 03:10:29;;;;;;;8.63;2.88;;;8.90;93.70;;;;;;5113669;28;20067;-77
2022/11/29 03:12:57;;;;;;;7.70;2.50;;;8.90;93.70;;;;;;5113625;28;20040;-77
2022/11/29 03:15:47;;;;;;;6.05;2.38;;;8.90;93.70;;;;;;5114045;28;20106;-77
2022/11/29 03:18:36;;;;;;;7.88;2.65;;;8.90;93.70;;;;;;5112751;28;20039;-77
2022/11/29 03:21:22;;;;;;;7.03;2.35;;;8.90;93.60;;;;;;5113766;28;20397;-77
2022/11/29 03:23:53;;;;;;;6.93;2.30;;;8.90;93.60;;;;;;5113855;28;20044;-77
2022/11/29 03:26:24;;;;;;;;;;;8.80;93.60;;;;;;5113697;28;20518;-77
2022/11/29 03:29:14;;;;;;;4.73;1.90;;;8.90;93.90;;;;;;5113748;28;19912;-77
2022/11/29 03:31:51;;;;;;;5.22;1.92;;;8.90;93.60;;;;;;5098163;28;20268;-77
2022/11/29 03:34:56;;;;;;;4.95;1.65;;;8.90;93.60;;;;;;5113406;28;20044;-77
2022/11/29 03:37:49;;;;;;;7.18;2.25;;;8.90;93.60;;;;;;5097911;28;20409;-77
2022/11/29 03:40:30;;;;;;;7.15;2.40;;;8.90;93.60;;;;;;5094705;28;20109;-77
2022/11/29 03:43:03;;;;;;;6.22;1.88;;;8.90;93.60;;;;;;5113229;28;20039;-77
2022/11/29 03:45:45;;;;;;;7.70;2.35;;;8.90;93.60;;;;;;5113261;28;20059;-77
2022/11/29 03:48:32;;;;;;;7.55;2.72;;;8.90;93.70;;;;;;5113569;28;20046;-76
2022/11/29 03:51:12;;;;;;;7.38;2.30;;;8.80;93.60;;;;;;5113030;28;20109;-77
2022/11/29 03:53:59;;;;;;;5.63;2.28;;;8.90;93.60;;;;;;5112846;28;20070;-77
2022/11/29 03:56:32;;;;;;;6.43;2.45;;;8.80;93.70;;;;;;5095485;28;20070;-77
2022/11/29 03:59:10;;;;;;;6.00;1.92;;;8.90;93.70;;;;;;5112761;28;20512;-77
2022/11/29 04:02:00;;;;;;;4.28;1.80;;;8.90;93.70;;;;;;5094398;28;20039;-77
2022/11/29 04:04:49;;;;;;;5.53;1.88;;;8.90;93.70;;;;;;5113124;28;20040;-77
2022/11/29 04:07:46;;;;;;;5.82;1.95;;;8.80;93.70;;;;;;5112655;28;20046;-77
2022/11/29 04:10:33;;;;;;;4.97;1.75;;;8.80;93.70;;;;;;5112265;28;20040;-77
2022/11/29 04:13:23;;;;;;;6.90;2.35;;;8.80;93.70;;;;;;5112582;28;20370;-77
2022/11/29 04:16:24;;;;;;;4.70;1.75;;;8.80;93.70;;;;;;5095023;28;20039;-77
2022/11/29 04:19:24;;;;;;;6.05;1.98;;;8.80;93.70;;;;;;5112578;28;20040;-76
2022/11/29 04:22:24;;;;;;;4.45;1.90;;;8.80;93.70;;;;;;5094093;28;20048;-77
2022/11/29 04:25:14;;;;;;;4.53;1.73;;;8.80;93.70;;;;;;5079835;28;20549;-77
2022/11/29 04:27:57;;;;;;;5.30;1.70;;;8.80;93.70;;;;;;5112543;28;20044;-77
2022/11/29 04:30:24;;;;;;;5.05;1.70;;;8.80;93.70;;;;;;5095807;28;20058;-77
2022/11/29 04:33:25;;;;;;;4.28;1.65;;;8.80;93.70;;;;;;5112954;28;20050;-77
2022/11/29 04:36:15;;;;;;;6.45;2.05;;;8.80;93.70;;;;;;5094270;28;20036;-77
2022/11/29 04:39:05;;;;;;;6.00;1.60;;;8.80;93.70;;;;;;5112146;28;20032;-77
2022/11/29 04:41:55;;;;;;;4.70;1.70;;;8.80;93.70;;;;;;5112282;28;20046;-77
2022/11/29 04:44:39;;;;;;;3.83;1.50;;;8.90;93.70;;;;;;5079122;28;20050;-77
2022/11/29 04:47:35;;;;;;;4.45;1.60;;;8.80;93.70;;;;;;5112207;28;20396;-77
2022/11/29 04:50:16;;;;;;;5.53;1.90;;;8.70;93.70;;;;;;5111914;28;20048;-77
2022/11/29 04:53:06;;;;;;;5.82;1.98;;;8.70;93.70;;;;;;5112189;28;20550;-77
2022/11/29 04:56:06;;;;;;;4.70;2.00;;;8.80;93.70;;;;;;5093877;28;20141;-77
2022/11/29 04:58:49;;;;;;;4.82;1.50;;;8.80;93.70;;;;;;5112094;28;20044;-77
2022/11/29 05:01:27;;;;;;;7.00;1.85;;;8.80;93.70;;;;;;5095468;28;20085;-77
2022/11/29 05:04:16;;;;;;;4.85;1.60;;;8.80;93.70;;;;;;5095511;28;20039;-77
2022/11/29 05:07:05;;;;;;;5.82;2.00;;;8.80;93.70;;;;;;5093862;28;20103;-77
2022/11/29 05:10:07;;;;;;;4.25;1.67;;;8.80;93.70;;;;;;5114344;28;20370;-77
2022/11/29 05:12:44;;;;;;;4.90;1.63;;;8.80;93.70;;;;;;5102914;28;20386;-77
2022/11/29 05:15:43;;;;;;;2.72;1.30;;;8.70;93.70;;;;;;5115605;28;20090;-77
2022/11/29 05:18:41;;;;;;;2.95;1.30;;;8.80;93.70;;;;;;5116240;28;20043;-77
2022/11/29 05:21:20;;;;;;;2.75;1.10;;;8.80;93.70;;;;;;5115865;28;20031;-77
2022/11/29 05:24:16;;;;;;;5.07;1.33;;;8.80;93.70;;;;;;5097731;28;20048;-77
2022/11/29 05:27:07;;;;;;;6.00;1.67;;;8.80;93.70;;;;;;5099944;28;20039;-77
2022/11/29 05:29:43;;;;;;;6.13;2.15;;;8.80;93.70;;;;;;5082096;28;20046;-77
2022/11/29 05:32:32;;;;;;;8.10;2.13;;;8.80;93.70;;;;;;5116013;28;20370;-77
2022/11/29 05:35:33;;;;;;;6.30;1.90;;;8.80;93.70;;;;;;5100882;28;20121;-77
2022/11/29 05:38:23;;;;;;;3.42;1.58;;;8.70;93.70;;;;;;5115436;28;20058;-77
2022/11/29 05:41:10;;;;;;;3.50;1.40;;;8.70;93.70;;;;;;5115328;28;20054;-77
2022/11/29 05:44:14;;;;;;;4.03;1.25;;;8.60;93.70;;;;;;5115796;28;20035;-77
2022/11/29 05:47:09;;;;;;;6.68;1.60;;;8.70;93.70;;;;;;5115294;28;20050;-77
2022/11/29 05:50:08;;;;;;;5.22;1.42;;;8.70;93.80;;;;;;5080487;28;20032;-77
2022/11/29 05:52:56;;;;;;;5.38;1.65;;;8.70;93.70;;;;;;5099868;28;20088;-77
2022/11/29 05:55:37;;;;;;;4.97;1.40;;;8.70;93.70;;;;;;5115124;28;20067;-77
2022/11/29 05:58:28;;;;;;;4.70;1.70;;;8.70;93.70;;;;;;5114947;28;20119;-77
2022/11/29 06:01:15;;;;;;;5.28;1.77;;;8.70;93.70;;;;;;5099626;28;20092;-77
2022/11/29 06:03:57;;;;;;;4.45;1.50;;;8.70;93.70;;;;;;5115602;28;20023;-77
2022/11/29 06:06:43;;;;;;;5.43;1.70;;;8.70;93.70;;;;;;5079814;28;20040;-77
2022/11/29 06:09:18;;;;;;;6.78;2.15;;;8.70;93.70;;;;;;5114648;28;20481;-77
2022/11/29 06:11:50;;;;;;;6.32;1.92;;;8.70;94.00;;;;;;5096597;28;20127;-77
2022/11/29 06:14:41;;;;;;;5.00;1.77;;;8.70;93.70;;;;;;5114614;28;20047;-76
2022/11/29 06:17:40;;;;;;;5.47;1.90;;;8.70;94.00;;;;;;5114697;28;20071;-77
2022/11/29 06:20:29;;;;;;;6.18;1.80;;;8.70;93.70;;;;;;5099188;28;20059;-77
2022/11/29 06:23:31;;;;;;;4.47;1.38;;;8.70;93.70;;;;;;5114501;28;20059;-77
2022/11/29 06:26:21;;;;;;;5.25;1.60;;;8.70;93.70;;;;;;5080505;28;20035;-77
2022/11/29 06:29:17;;;;;;;5.85;1.70;;;8.70;93.70;;;;;;5113195;28;20019;-77
2022/11/29 06:31:47;;;;;;;5.38;1.88;;;8.60;93.70;;;;;;5114423;28;20587;-77
2022/11/29 06:34:43;;;;;;;5.95;1.77;;;8.70;93.70;;;;;;5114351;28;20489;-77
2022/11/29 06:37:25;;;;;;;8.60;2.20;;;8.70;93.70;;;;;;5095818;28;20044;-77
2022/11/29 06:39:53;;;;;;;6.60;2.00;;;8.70;93.70;;;;;;5114351;28;20043;-77
2022/11/29 06:42:19;;;;;;;6.22;2.10;;;8.70;93.90;;;;;;5114574;28;20062;-77
2022/11/29 06:44:45;;;;;;;6.15;1.85;;;8.70;93.70;;;;;;5114260;28;20122;-77
2022/11/29 06:47:23;;;;;;;7.13;2.38;;;8.70;93.70;;;;;;5114201;28;20027;-77
2022/11/29 06:49:59;;;;;;;8.48;2.53;;;8.70;93.70;;;;;;5078633;28;20047;-77
2022/11/29 06:52:41;;;;;;;7.30;2.30;;;8.70;93.70;;;;;;5114052;28;20458;-77
2022/11/29 06:55:32;;;;;;;7.32;2.35;;;8.60;93.70;;;;;;5097474;28;20040;-77
2022/11/29 06:58:33;;;;;;;5.57;2.05;;;8.70;93.80;;;;;;5095864;28;20039;-77
2022/11/29 07:01:12;;;;;;;7.13;2.40;;;8.60;93.70;;;;;;5098753;28;20039;-77
2022/11/29 07:04:03;;;;;;;6.68;1.85;;;8.60;93.70;;;;;;5080533;28;20050;-77
2022/11/29 07:06:30;;;;;;;6.07;1.85;;;8.50;93.70;;;;;;5113708;28;20448;-77
2022/11/29 07:09:01;;;;;;;5.35;1.73;;;8.60;93.80;;;;;;5095455;28;20047;-77
2022/11/29 07:11:28;;;;;;;10.13;2.88;;;8.60;93.80;;;;;;5113943;28;20114;-76
2022/11/29 07:13:54;;;;;;;5.05;2.08;;;8.60;93.70;;;;;;5113732;28;20039;-76
2022/11/29 07:16:35;;;;;;;6.60;2.17;;;8.60;93.70;;;;;;5114206;28;20058;-76
2022/11/29 07:19:19;;;;;;;6.47;2.10;;;8.60;93.80;;;;;;5093362;28;20482;-76
2022/11/29 07:21:59;;;;;;;5.82;1.75;;;8.50;93.80;;;;;;5113483;28;20439;-76
2022/11/29 07:24:46;;;;;;;5.88;1.95;;;8.50;93.80;;;;;;5113707;28;20051;-76
2022/11/29 07:27:22;;;;;;;6.32;2.20;;;8.60;93.80;;;;;;5113334;28;21143;-76
2022/11/29 07:30:12;;;;;;;7.40;2.10;;;8.60;93.80;;;;;;5113481;28;20397;-76
2022/11/29 07:32:56;;;;;;;5.60;1.95;;;8.50;93.80;;;;;;5112862;28;20090;-76
2022/11/29 07:35:44;;;;;;;6.80;1.65;;;8.50;93.80;;;;;;5113498;28;20378;-76
2022/11/29 07:38:36;;;;;;;6.90;2.22;;;8.50;93.80;;;;;;5113493;28;20493;-76
2022/11/29 07:41:11;;;;;;;6.45;1.85;;;8.50;93.80;;;;;;5113325;28;20042;-76
2022/11/29 07:43:58;;;;;;;4.40;1.70;;;8.50;93.80;;;;;;5113791;28;20077;-76
2022/11/29 07:46:24;;;;;;;5.38;1.80;;;8.50;93.80;;;;;;5113341;28;20494;-77
2022/11/29 08:00:29;;;;;;;6.07;1.80;;;8.60;93.70;;;;;;4931249;29;20079;-79
2022/11/29 08:17:29;;;;;;;5.07;1.77;;;8.50;93.70;;;;;;4734940;30;20055;-80
2022/11/29 08:19:57;;;;;;;5.75;1.40;;;8.50;93.80;;;;;;4720587;30;20419;-78
2022/11/29 08:22:30;;;;;;;4.50;1.60;;;8.50;93.80;;;;;;4732434;30;20512;-78
2022/11/29 08:24:58;;;;;;;4.82;1.60;;;8.50;93.70;;;;;;4766893;30;20530;-78
2022/11/29 08:27:24;;;;;;;6.00;1.63;;;8.40;93.70;;;;;;4737603;30;20040;-77
2022/11/29 08:30:38;;;;;;;6.30;1.73;;;8.60;93.80;;;;;;4748446;30;20116;-78
2022/11/29 08:33:04;;;;;;;4.88;1.58;;;8.50;93.80;;;;;;4769430;30;20071;-77
2022/11/29 08:35:48;;;;;;;4.85;1.70;;;8.50;93.80;;;;;;4769812;30;20056;-79
2022/11/29 08:38:24;;;;;;;4.75;1.63;;;8.50;93.80;;;;;;4784889;29;20407;-78
2022/11/29 08:41:08;;;;;;;5.78;1.63;;;8.50;93.80;;;;;;4769531;30;20125;-78
2022/11/29 08:43:38;;;;;;;5.00;1.67;;;8.50;93.80;;;;;;4813118;29;20050;-78
2022/11/29 08:46:04;;;;;;;3.78;1.60;;;8.50;93.80;;;;;;4847639;29;20447;-78
2022/11/29 08:48:43;;;;;;;4.38;1.38;;;8.50;93.80;;;;;;4916492;29;20036;-77
2022/11/29 08:51:10;;;;;;;4.72;1.70;;;8.50;93.80;;;;;;4897369;29;20068;-78
2022/11/29 08:53:51;;;;;;;5.90;1.52;;;8.50;93.70;;;;;;4950708;28;20393;-78
2022/11/29 08:56:19;;;;;;;5.38;1.70;;;8.50;93.70;;;;;;4959799;28;20046;-79
2022/11/29 08:59:54;;;;;;;5.50;1.92;;;8.50;93.80;;;;;;4958712;28;20046;-79
2022/11/29 09:02:37;;;;;;;3.45;1.20;;;8.60;93.80;;;;;;4876822;29;20045;-79
2022/11/29 09:05:07;;;;;;;5.03;1.50;;;8.60;93.80;;;;;;4863980;29;20108;-79
2022/11/29 09:17:55;;;;;;;6.57;1.92;;;8.50;93.80;;;;;;4840181;29;20390;-79
2022/11/29 09:23:07;;;;;;;4.00;1.33;;;8.50;93.70;;;;;;4854059;29;20093;-78
2022/11/29 09:26:26;;;;;;;4.38;1.25;;;8.50;93.80;;;;;;4841581;29;20144;-81
2022/11/29 09:28:52;;;;;;;5.50;1.60;;;8.50;93.80;;;;;;4804616;29;20047;-77
2022/11/29 09:31:20;;;;;;;5.50;1.67;;;8.60;93.80;;;;;;4805292;29;20057;-77
2022/11/29 09:38:22;;;;;;;2.60;1.10;;;8.50;93.80;;;;;;4732667;30;20040;-78
2022/11/29 09:41:23;;;;;;;3.55;1.35;;;8.50;93.70;;;;;;4730436;30;20045;-79
2022/11/29 09:44:31;;;;;;;3.95;1.35;;;8.60;93.70;;;;;;4743290;30;20044;-79
2022/11/29 09:47:12;;;;;;;5.35;1.48;;;8.70;93.80;;;;;;4724144;29;20052;-79
2022/11/29 09:50:14;;;;;;;6.22;1.75;;;8.60;93.70;;;;;;4777153;29;20051;-79
2022/11/29 09:53:25;;;;;;;;;;;8.60;93.70;;;;;;4789230;29;20125;-79
2022/11/29 09:56:40;;;;;;;2.65;1.02;;;8.70;93.70;;;;;;4869495;29;19995;-78
2022/11/29 09:59:39;;;;;;;7.63;2.13;;;8.60;93.70;;;;;;4815388;29;20065;-78
2022/11/29 10:02:44;;;;;;;5.07;1.58;;;8.60;93.60;;;;;;4803845;29;20153;-79
2022/11/29 10:05:27;;;;;;;5.78;2.00;;;8.70;93.70;;;;;;4860950;29;20627;-77
2022/11/29 10:09:21;;;;;;;8.05;2.78;;;8.70;93.60;;;;;;4870136;29;20500;-81
2022/11/29 10:16:10;;;;;;;4.63;1.40;;;8.70;93.60;;;;;;4832039;29;20046;-81
2022/11/29 10:22:41;;;;;;;5.28;2.10;;;8.70;93.60;;;;;;4775558;29;20075;-78
2022/11/29 10:25:25;;;;;;;6.78;2.03;;;8.80;93.50;;;;;;4774500;29;20055;-79
2022/11/29 10:35:51;;;;;;;3.58;1.50;;;8.80;93.50;;;;;;4802608;29;20117;-81
2022/11/29 10:38:01;;;;;;;3.40;1.50;;;8.90;93.60;;;;;;4823386;29;20145;-78
2022/11/29 10:40:33;;;;;;;4.07;1.38;;;8.90;93.50;;;;;;4805480;29;20058;-78
2022/11/29 10:43:02;;;;;;;3.67;1.38;;;9.00;93.50;;;;;;4807710;29;20050;-77
2022/11/29 10:46:29;;;;;;;4.85;1.90;;;8.90;93.50;;;;;;4810727;29;20516;-81
2022/11/29 10:51:55;;;;;;;2.67;1.50;;;9.00;93.50;;;;;;4802940;29;20039;-80
2022/11/29 10:58:36;;;;;;;2.78;1.20;;;8.90;93.50;;;;;;4839605;29;20068;-81
2022/11/29 11:05:40;;;;;;;3.78;1.17;;;9.10;93.50;;;;;;4760191;30;20060;-81
2022/11/29 11:28:28;;;;;;;4.05;1.60;;;9.10;93.50;;;;;;4662159;30;20523;-80
2022/11/29 11:38:07;;;;;;;3.03;1.50;;;9.20;93.50;;;;;;4678681;30;20055;-80
2022/11/29 11:40:33;;;;;;;3.35;1.17;;;9.30;93.40;;;;;;4697632;30;20061;-78
2022/11/29 11:43:35;;;;;;;2.60;1.25;;;9.20;93.40;;;;;;4711805;30;20132;-79
2022/11/29 11:48:55;;;;;;;3.95;1.20;;;9.20;93.50;;;;;;4714723;30;20450;-78
2022/11/29 11:51:46;;;;;;;3.05;1.20;;;9.20;93.50;;;;;;4712853;30;20041;-79
2022/11/29 11:54:50;;;;;;;3.63;1.40;;;9.30;93.50;;;;;;4719982;30;20052;-79
2022/11/29 11:57:34;;;;;;;2.67;1.10;;;9.20;93.50;;;;;;4748403;30;20131;-78
2022/11/29 12:00:00;;;;;;;2.35;1.10;;;9.20;93.50;;;;;;4759735;29;20410;-77
2022/11/29 12:03:09;;;;;;;4.05;1.20;;;9.30;93.50;;;;;;4906991;29;20044;-80
2022/11/29 12:10:02;;;;;;;3.60;1.50;;;9.30;93.50;;;;;;4893991;29;20110;-79
2022/11/29 12:28:10;;;;;;;3.05;1.45;;;9.40;93.40;;;;;;4750338;30;20048;-80
2022/11/29 12:30:54;;;;;;;2.30;1.10;;;9.40;93.40;;;;;;4736726;30;20063;-79
2022/11/29 12:33:34;;;;;;;2.15;1.10;;;9.40;93.40;;;;;;4743111;30;20043;-79
2022/11/29 12:36:23;;;;;;;3.22;1.40;;;9.40;93.50;;;;;;4755040;30;20104;-79
2022/11/29 12:42:44;;;;;;;3.92;1.50;;;9.50;93.30;;;;;;4796764;29;20051;-81
2022/11/29 12:49:07;;;;;;;3.42;1.40;;;9.60;93.30;;;;;;4748371;30;20494;-80
2022/11/29 12:52:34;;;;;;;2.80;1.40;;;9.60;93.60;;;;;;4734911;30;20086;-81
2022/11/29 12:59:49;;;;;;;2.70;1.20;;;9.70;93.20;;;;;;4744081;30;20575;-80
2022/11/29 13:02:38;;;;;;;5.18;1.70;;;9.70;93.20;;;;;;4768580;30;20399;-80
2022/11/29 13:09:27;;;;;;;3.80;1.38;;;9.60;93.30;;;;;;4800468;29;20156;-80
2022/11/29 13:12:31;;;;;;;1.45;0.90;;;9.60;93.30;;;;;;4783252;30;20136;-80
2022/11/29 13:15:03;;;;;;;1.52;1.00;;;9.60;93.30;;;;;;4773187;30;20112;-77
2022/11/29 13:18:07;;;;;;;3.80;1.50;;;9.60;93.30;;;;;;4769383;30;20078;-76
2022/11/29 13:20:43;;;;;;;2.72;1.33;;;9.60;93.30;;;;;;4784461;30;20051;-76
2022/11/29 13:23:23;;;;;;;2.78;1.20;;;9.70;93.30;;;;;;4815698;29;20055;-77
2022/11/29 13:25:53;;;;;;;3.97;1.58;;;9.70;93.30;;;;;;4813631;29;20052;-77
2022/11/29 13:28:30;;;;;;;5.55;1.58;;;9.60;93.30;;;;;;4864271;29;20050;-77
2022/11/29 13:31:01;;;;;;;4.90;1.70;;;9.60;93.30;;;;;;4915482;29;20044;-77
2022/11/29 13:33:47;;;;;;;4.43;1.80;;;9.70;93.60;;;;;;4916322;29;20048;-77
2022/11/29 13:36:24;;;;;;;5.10;2.00;;;9.70;93.30;;;;;;4916063;29;20131;-77
2022/11/29 13:39:28;;;;;;;3.97;1.50;;;9.60;93.20;;;;;;4920423;28;20545;-77
2022/11/29 13:42:04;;;;;;;2.80;1.42;;;9.60;93.30;;;;;;4954257;28;20051;-77
2022/11/29 13:45:09;;;;;;;3.17;1.25;;;9.60;93.30;;;;;;4953175;28;20095;-78
2022/11/29 13:47:59;;;;;;;3.53;1.33;;;9.60;93.30;;;;;;4990418;28;20037;-78
2022/11/29 13:50:41;;;;;;;3.85;1.30;;;9.50;93.30;;;;;;4961756;28;20416;-77
2022/11/29 13:53:23;;;;;;;2.90;1.13;;;9.70;93.30;;;;;;4976525;28;20136;-78
2022/11/29 13:55:59;;;;;;;3.72;1.23;;;9.70;93.30;;;;;;4980476;28;20112;-77
2022/11/29 13:58:44;;;;;;;3.92;1.67;;;9.70;93.20;;;;;;5020032;28;20045;-77
2022/11/29 14:01:13;;;;;;;4.85;1.55;;;9.70;93.20;;;;;;5035536;28;20087;-77
2022/11/29 14:03:43;;;;;;;2.85;1.25;;;9.70;93.20;;;;;;5035935;28;20603;-75
2022/11/29 14:06:55;;;;;;;3.15;1.38;;;9.70;93.20;;;;;;5032850;28;20072;-78
2022/11/29 14:09:50;;;;;;;5.32;1.52;;;9.80;93.20;;;;;;4959370;28;20068;-78
2022/11/29 14:12:36;;;;;;;3.00;1.35;;;9.70;93.20;;;;;;4886410;29;20048;-76
2022/11/29 14:16:41;;;;;;;3.47;1.45;;;9.70;93.10;;;;;;4915185;29;20055;-78
2022/11/29 14:33:03;;;;;;;1.67;1.02;;;9.50;93.30;;;;;;4877046;29;20496;-76
2022/11/29 14:39:40;;;;;;;3.05;1.48;;;9.50;93.20;;;;;;4797512;29;20406;-78
2022/11/29 14:42:23;;;;;;;3.67;1.50;;;9.50;93.20;;;;;;4836795;29;20041;-77
2022/11/29 14:44:57;;;;;;;2.95;1.40;;;9.40;93.20;;;;;;4815509;29;20115;-77
2022/11/29 14:47:33;;;;;;;4.90;1.92;;;9.40;93.20;;;;;;4805821;29;20118;-77
2022/11/29 14:50:06;;;;;;;4.38;1.80;;;9.40;93.20;;;;;;4845344;29;20151;-77
2022/11/29 14:52:39;;;;;;;3.90;1.83;;;9.40;93.30;;;;;;4846914;29;20131;-77
2022/11/29 14:55:29;;;;;;;5.43;2.15;;;9.30;93.30;;;;;;4861612;29;20519;-77
2022/11/29 15:01:28;;;;;;;3.08;1.52;;;9.30;93.30;;;;;;4838177;29;20390;-77
2022/11/29 15:03:57;;;;;;;3.95;1.77;;;9.30;93.30;;;;;;4837793;29;20061;-77
2022/11/29 15:06:26;;;;;;;4.32;1.90;;;9.20;93.30;;;;;;4862428;29;20147;-77
2022/11/29 15:09:18;;;;;;;4.18;1.70;;;9.10;93.30;;;;;;4877377;29;20053;-76
2022/11/29 15:11:51;;;;;;;4.47;2.03;;;9.10;93.40;;;;;;4858556;29;20130;-76
2022/11/29 15:14:42;;;;;;;3.80;1.83;;;9.10;93.40;;;;;;4827955;29;20497;-78
2022/11/29 15:18:00;;;;;;;3.63;1.70;;;9.00;93.50;;;;;;4854529;29;20506;-78
2022/11/29 15:21:07;;;;;;;2.65;1.55;;;8.90;93.50;;;;;;4887966;29;20279;-77
2022/11/29 15:30:00;;;;;;;4.25;1.63;;;8.70;93.60;;;;;;4947070;28;20137;-77
2022/11/29 15:32:59;;;;;;;3.70;1.60;;;8.60;93.50;;;;;;5004678;28;20073;-78
2022/11/29 15:35:25;;;;;;;3.13;1.63;;;8.70;93.60;;;;;;4950686;29;20043;-76
2022/11/29 15:37:52;;;;;;;3.80;1.50;;;8.70;93.50;;;;;;4938966;28;20035;-76
2022/11/29 15:40:22;;;;;;;4.18;1.60;;;8.70;93.50;;;;;;4938750;28;20058;-77
2022/11/29 15:43:03;;;;;;;4.90;1.80;;;8.70;93.50;;;;;;4993112;28;20120;-77
2022/11/29 15:48:29;;;;;;;4.53;2.10;;;8.70;93.60;;;;;;4983719;28;20057;-75
2022/11/29 15:51:15;;;;;;;4.80;1.60;;;8.70;93.50;;;;;;5007884;28;20670;-75
2022/11/29 15:53:50;;;;;;;4.30;1.80;;;8.70;93.50;;;;;;4990194;28;20061;-75
2022/11/29 15:56:25;;;;;;;6.28;2.10;;;8.70;93.50;;;;;;5004674;28;20046;-75
2022/11/29 15:58:54;;;;;;;3.88;1.73;;;8.70;93.50;;;;;;4989766;28;20129;-75
2022/11/29 16:01:20;;;;;;;4.82;1.80;;;8.60;93.50;;;;;;4989395;28;20046;-74
2022/11/29 16:03:50;;;;;;;3.78;1.90;;;8.60;93.50;;;;;;5007186;28;20061;-75
2022/11/29 16:06:39;;;;;;;4.40;1.70;;;8.60;93.50;;;;;;5000723;28;20057;-76
2022/11/29 16:09:12;;;;;;;3.92;1.80;;;8.60;93.50;;;;;;4994291;28;20045;-75
2022/11/29 16:11:38;;;;;;;4.95;1.70;;;8.60;93.50;;;;;;5010404;28;20397;-75
2022/11/29 16:14:23;;;;;;;6.15;2.17;;;8.60;93.50;;;;;;5070329;28;20093;-75
2022/11/29 16:16:53;;;;;;;4.28;1.70;;;8.60;93.50;;;;;;5070394;28;20052;-74
2022/11/29 16:19:38;;;;;;;3.85;1.70;;;8.60;93.50;;;;;;5096371;28;20104;-74
2022/11/29 16:22:23;;;;;;;5.78;1.85;;;8.50;93.50;;;;;;5112777;28;20048;-74
2022/11/29 16:25:01;;;;;;;6.03;2.00;;;8.50;93.50;;;;;;5112721;28;20439;-74
2022/11/29 16:27:32;;;;;;;3.30;1.73;;;8.50;93.50;;;;;;5112826;28;20032;-74
2022/11/29 16:29:59;;;;;;;4.00;1.95;;;8.50;93.50;;;;;;5112657;28;20496;-74
2022/11/29 16:32:31;;;;;;;4.47;1.83;;;8.50;93.50;;;;;;5094559;28;20104;-74
2022/11/29 16:35:16;;;;;;;4.15;1.83;;;8.50;93.50;;;;;;5112595;28;20130;-76
2022/11/29 16:37:44;;;;;;;5.32;2.10;;;8.40;93.50;;;;;;5112745;28;20062;-76
2022/11/29 16:40:24;;;;;;;4.22;1.83;;;8.50;93.50;;;;;;5077908;28;20127;-75
2022/11/29 17:05:19;;;;;;;4.32;1.90;;;8.50;93.40;;;;;;4903759;29;20089;-76
2022/11/29 17:08:01;;;;;;;3.70;1.77;;;8.50;93.40;;;;;;4881633;29;20059;-76
2022/11/29 17:10:56;;;;;;;;;;;8.50;93.40;;;;;;4860773;29;20041;-77
2022/11/29 17:13:28;;;;;;;3.67;1.70;;;8.50;93.40;;;;;;4825014;29;19920;-77
2022/11/29 17:16:10;;;;;;;3.55;1.67;;;8.50;93.40;;;;;;4826623;29;20055;-77
2022/11/29 17:18:36;;;;;;;5.07;2.13;;;8.50;93.40;;;;;;4848420;29;20057;-77
2022/11/29 17:21:02;;;;;;;4.88;2.00;;;8.50;93.40;;;;;;4848688;29;20042;-77
2022/11/29 17:23:28;;;;;;;4.30;1.92;;;8.50;93.40;;;;;;4864731;29;20182;-77
2022/11/29 17:25:56;;;;;;;3.92;1.80;;;8.50;93.40;;;;;;4849462;29;20062;-77
2022/11/29 17:28:22;;;;;;;4.78;1.83;;;8.50;93.40;;;;;;4848497;29;20141;-77
2022/11/29 17:30:48;;;;;;;4.30;2.08;;;8.50;93.40;;;;;;4864381;29;20037;-77
2022/11/29 17:33:13;;;;;;;5.07;2.10;;;8.40;93.40;;;;;;4902043;29;20040;-78
2022/11/29 17:35:39;;;;;;;4.55;1.95;;;8.50;93.40;;;;;;4948737;28;20042;-78
2022/11/29 17:38:04;;;;;;;4.05;1.80;;;8.60;93.40;;;;;;4961467;28;20051;-78
2022/11/29 17:40:30;;;;;;;5.03;1.95;;;8.50;93.40;;;;;;4964689;28;20046;-78
2022/11/29 17:42:56;;;;;;;4.60;2.15;;;8.50;93.40;;;;;;4998695;28;20042;-78
2022/11/29 17:45:21;;;;;;;4.88;2.25;;;8.60;93.50;;;;;;5034806;28;20040;-78
2022/11/29 17:47:50;;;;;;;3.38;1.90;;;8.50;93.50;;;;;;5110654;28;20039;-78
2022/11/29 17:50:16;;;;;;;3.83;1.83;;;8.50;93.50;;;;;;5118515;28;20064;-78
2022/11/29 17:52:42;;;;;;;5.07;2.10;;;8.50;93.50;;;;;;5100964;28;20046;-78
2022/11/29 17:55:08;;;;;;;3.88;1.80;;;8.50;93.50;;;;;;5118550;28;20063;-78
2022/11/29 17:57:34;;;;;;;5.85;2.35;;;8.50;93.50;;;;;;5117020;28;20048;-78